Amunt
Inicio > meteoXarxa
Fes-te'n soci

METEOXARXA

Benicarló
Ubicació centre
Comarca el Baix Maestrat
Altitud (msnm) 15
Posició geogràfica 40° 25' 7.68" N, 00° 25' 34.32" E
Model Davis Vantage Pro2
Presa de dades
Font de les dades Mikel
Estadístiques. Resum
Data Temperatura (ºC) Humitat (%) Pressió (hPa) Vent (km/h) Precipit. (mm)
Mínima Mitjana Màxima Mínima Mitjana Màxima Mínima Mitjana Màxima Predom. Mitjana Ràfega màxima Total Dies de pluja
Mínima Mitjana Màxima Mínima Mitjana Màxima
Últimes dades diàries
21-01-2017 7,4     9,3     11,3 59,0 76,0 93,0 1.015,0 1.017,0 1.019,0 47,0 12,4  
20-01-2017 8,6     9,8     10,9 84,0 88,5 93,0 1.017,0 1.018,0 1.019,0 58,0 41,2  
19-01-2017 2,8     6,5     10,2 47,0 69,0 91,0 1.018,0 1.020,0 1.022,0 68,0 14,6  
18-01-2017 2,1     5,7     9,2 21,0 39,0 57,0 1.019,0 1.020,5 1.022,0 39,0 0,0  
17-01-2017 3,8     8,1     12,3 23,0 42,5 62,0 1.013,0 1.016,5 1.020,0 39,0 0,0  
16-01-2017 11,0     14,2     17,3 43,0 55,0 67,0 1.013,0 1.017,5 1.022,0 51,0 0,0  
15-01-2017 7,8     11,1     14,4 39,0 49,5 60,0 1.021,0 1.023,0 1.025,0 39,0 0,0  
14-01-2017 7,7     10,2     12,6 33,0 45,5 58,0 1.020,0 1.022,5 1.025,0 55,0 0,0  
13-01-2017 9,1     13,2     17,4 34,0 48,5 63,0 1.015,0 1.018,0 1.021,0 47,0 0,0  
12-01-2017 8,2     12,2     16,2 69,0 77,0 85,0 1.015,0 1.019,5 1.024,0 32,0 0,0  
11-01-2017 8,7     11,8     14,8 56,0 65,5 75,0 1.012,0 1.018,0 1.024,0 31,0 0,0  
10-01-2017 7,8     11,9     16,1 47,0 59,0 71,0 1.009,0 1.014,0 1.019,0 55,0 0,0  
18-12-2016 9,3     10,4     11,6 79,0 83,5 88,0 1.031,0 1.032,5 1.034,0 24,0 3,2  
17-12-2016 11,4     13,2     15,1 64,0 78,5 93,0 1.025,0 1.029,5 1.034,0 55,0 23,4  
16-12-2016 10,5     12,4     14,4 84,0 89,0 94,0 1.018,0 1.021,5 1.025,0 45,0 8,6  
15-12-2016 7,4     10,4     13,4 76,0 83,5 91,0 1.021,0 1.022,0 1.023,0 23,0 0,0  
14-12-2016 7,9     11,7     15,4 76,0 84,0 92,0 1.020,0 1.022,5 1.025,0 18,0 0,0  
13-12-2016 5,6     10,2     14,8 66,0 78,5 91,0 1.024,0 1.025,0 1.026,0 19,0 0,0  
12-12-2016 6,1     10,5     14,9 66,0 78,0 90,0 1.022,0 1.023,0 1.024,0 24,0 0,0  
11-12-2016 6,9     11,4     15,9 70,0 81,5 93,0 1.023,0 1.025,0 1.027,0 21,0 0,0  
10-12-2016 8,8     13,1     17,3 67,0 79,5 92,0 1.027,0 1.029,0 1.031,0 21,0 0,0  
09-12-2016 7,4     12,6     17,7 53,0 70,5 88,0 1.031,0 1.033,0 1.035,0 19,0 0,0  
08-12-2016 8,8     12,5     16,2 68,0 78,5 89,0 1.033,0 1.034,0 1.035,0 21,0 0,0  
07-12-2016 8,9     12,7     16,4 71,0 80,5 90,0 1.028,0 1.030,5 1.033,0 16,0 0,0  
06-12-2016 11,4     14,8     18,2 64,0 76,5 89,0 1.023,0 1.026,0 1.029,0 19,0 0,0  
05-12-2016 15,0     16,1     17,1 83,0 88,0 93,0 1.016,0 1.019,5 1.023,0 40,0 0,6  
04-12-2016 11,8     14,2     16,6 86,0 90,5 95,0 1.014,0 1.015,0 1.016,0 40,0 3,8  
03-12-2016 6,7     9,8     12,9 82,0 88,0 94,0 1.015,0 1.016,0 1.017,0 23,0 2,8  
02-12-2016 8,3     12,3     16,3 65,0 78,0 91,0 1.016,0 1.020,0 1.024,0 16,0 0,0  
01-12-2016 8,7     11,9     15,1 74,0 82,5 91,0 1.024,0 1.027,5 1.031,0 16,0 0,0  
30-11-2016 11,2     13,2     15,2 67,0 75,0 83,0 1.028,0 1.030,5 1.033,0 39,0 0,0  
29-11-2016 11,2     13,2     15,1 75,0 84,5 94,0 1.016,0 1.021,5 1.027,0 42,0 17,8  
Dades del mes en curs (actualitzades fins l'últim dia disponible)
01/2017 2,1 7,1 11,0 10,3 9,2 13,6 17,4 21,0 59,6 93,0 1.009,0 1.018,7 1.025,0   68,0 68,2  
Últimes dades mensuals
12/2016 5,6 8,9 15,0 12,2 11,6 15,5 18,2 70,5 81,6 90,5 1.015,0 1.025,1 1.034,0 55,0 42,4 6
11/2016 6,8 11,3 15,4 14,9 13,9 18,4 25,9 44,0 69,7 88,5 1.002,5 1.015,4 1.030,5 53,0 74,8 8
10/2016 12,3 16,4 20,0 19,8 17,9 23,2 27,1 60,5 77,1 88,0 1.000,5 1.016,4 1.029,5 34,0 25,8 11
09/2016 16,3 19,9 24,6 23,8 22,6 27,7 31,6 51,5 71,4 80,0 1.012,0 1.018,2 1.027,0 47,0 22,4 3
08/2016 18,2 21,7 24,5 25,4 25,4 29,1 30,4 57,0 70,5 81,5 1.010,0 1.017,9 1.023,5 40,0 8,4 3
07/2016 17,8 21,5 24,1 25,1 24,3 28,6 30,3 45,0 68,0 81,0 1.013,0 1.016,8 1.021,5 40,0 1,4 2
06/2016 15,7 18,8 22,3 22,5 23,3 26,1 30,6 42,5 68,6 83,0 1.002,0 1.015,3 1.023,0 51,0 8,6 5
05/2016 9,9 14,5 18,6 18,0 16,7 21,6 27,4 35,0 69,2 93,0 1.004,0 1.014,1 1.021,5 61,0 40,6 9
04/2016 8,4 11,7 14,5 15,3 14,6 19,0 22,4 40,0 68,7 86,0 1.006,0 1.013,1 1.019,5 55,0 54,2 7
03/2016 6,1 9,5 13,2 13,2 11,8 17,0 24,1 39,5 62,2 89,0 1.003,0 1.014,1 1.021,5 63,0 72,8 5
02/2016 3,9 8,7 15,5 12,9 11,8 17,0 25,6 38,5 61,7 84,0 992,0 1.016,5 1.035,0 76,0 13,2 7
01/2016 5,6 9,1 13,4 12,6 12,2 16,1 22,9 42,5 68,8 89,0 1.006,5 1.021,9 1.034,5 63,0 0,2 1
12/2015 6,3 9,1 12,3 12,9 14,7 16,6 18,3 67,0 80,6 88,0 1.022,5 1.029,8 1.036,0 26,0 1,2 4
Dades de l'any en curs (actualitzades fins l'últim dia disponible)
2017 2,1 7,1 11,0 10,3 9,2 13,6 17,4 21,0 59,6 93,0 1.009,0 1.018,7 1.025,0   68,0 68,2  
Últimes dades anuals
2010 1,7 13,3 24,7 16,7 5,1 20,0 34,6 37,0 69,4 94,0 992,3 1.013,6 1.029,1 5,2 93,0 466,2 91
2011 -0,4 14,3 24,4 17,7 7,1 21,0 31,3 36,5 70,4 94,5 97,0 710,6 75
2012 0,3 13,8 18,9 17,5 16,9 21,1 31,7 48,2 65,9 72,4 1.014,2 1.017,0 1.019,7 105,0 525,0 64
2013 1,9 13,8 18,3 17,6 17,6 21,4 32,1 56,8 65,8 70,9 1.005,9 1.015,6 1.023,9 84,0 587,6 77
2014 2,7 14,8 24,6 18,3 8,5 21,9 33,5 35,5 69,9 91,5 993,5 1.014,9 1.032,5 105,0 519,6 75
2015 2,6 14,2 20,4 18,0 18,3 21,8 32,8 58,9 69,7 80,6 1.014,6 1.018,4 1.029,8 77,0 680,4 68